Time;durP1;ratioP1;P1;durP2;ratioP2;P2;SDS_P1;SDS_P2;PMS_P1;PMS_P2;Temp;Humidity;BMP_temperature;BMP_pressure;BME280_temperature;BME280_humidity;BME280_pressure;Samples;Min_cycle;Max_cycle;Signal;HPM_P1;HPM_P2
2023/06/16 00:02:12;;;;;;;7.03;4.07;;;;;;;17.29;57.41;101745.88;5047693;28;20049;-77
2023/06/16 00:04:38;;;;;;;5.90;3.97;;;;;;;17.27;56.96;101740.69;5032106;28;20025;-77
2023/06/16 00:07:03;;;;;;;6.13;3.78;;;;;;;17.26;56.47;101746.00;5046647;28;20075;-77
2023/06/16 00:09:28;;;;;;;6.28;3.70;;;;;;;17.18;59.90;101734.94;5050345;28;20028;-78
2023/06/16 00:11:55;;;;;;;7.10;3.97;;;;;;;17.14;59.49;101736.84;5049109;28;20438;-77
2023/06/16 00:14:20;;;;;;;6.70;3.72;;;;;;;17.09;57.99;101737.00;5048104;28;20025;-78
2023/06/16 00:16:47;;;;;;;4.95;3.58;;;;;;;17.04;59.49;101736.34;5050445;28;20033;-77
2023/06/16 00:19:13;;;;;;;9.10;4.55;;;;;;;17.01;59.99;101739.09;5049936;28;20052;-77
2023/06/16 00:21:41;;;;;;;5.05;3.97;;;;;;;16.98;60.03;101741.84;5045993;28;20039;-77
2023/06/16 00:24:07;;;;;;;4.80;3.53;;;;;;;16.96;59.68;101738.41;5047611;28;20075;-78
2023/06/16 00:26:36;;;;;;;6.13;3.90;;;;;;;16.92;59.44;101740.25;5046852;28;20021;-77
2023/06/16 00:29:02;;;;;;;6.97;4.03;;;;;;;16.90;60.57;101746.50;5043469;28;20038;-77
2023/06/16 00:31:31;;;;;;;7.15;4.35;;;;;;;16.90;58.55;101746.50;5050766;28;20024;-77
2023/06/16 00:33:56;;;;;;;6.10;3.95;;;;;;;16.89;57.23;101742.16;5052549;28;20095;-77
2023/06/16 00:36:22;;;;;;;7.10;4.20;;;;;;;16.87;60.30;101738.72;5050748;28;20111;-77
2023/06/16 00:38:47;;;;;;;8.95;3.95;;;;;;;16.80;61.21;101738.94;5051090;28;20021;-77
2023/06/16 00:41:13;;;;;;;4.80;3.88;;;;;;;16.78;59.03;101740.78;5052925;28;20506;-78
2023/06/16 00:43:39;;;;;;;6.18;4.07;;;;;;;16.74;58.70;101736.53;5051676;28;20032;-77
2023/06/16 00:46:05;;;;;;;5.32;3.80;;;;;;;16.70;59.13;101742.84;5051718;28;20032;-77
2023/06/16 00:48:31;;;;;;;5.40;3.92;;;;;;;16.67;57.50;101743.81;5050506;28;20321;-77
2023/06/16 00:50:57;;;;;;;5.53;4.20;;;;;;;16.62;58.62;101742.25;5051900;28;20021;-77
2023/06/16 00:53:23;;;;;;;5.90;4.35;;;;;;;16.59;59.88;101742.38;5050954;28;20017;-77
2023/06/16 00:55:48;;;;;;;6.32;4.38;;;;;;;16.54;58.78;101738.16;5049014;28;20170;-77
2023/06/16 00:58:18;;;;;;;5.50;4.10;;;;;;;16.53;60.22;101731.19;5051899;28;20467;-77
2023/06/16 01:00:45;;;;;;;5.85;4.03;;;;;;;16.51;60.42;101734.78;5050219;28;20025;-77
2023/06/16 01:03:13;;;;;;;6.47;3.95;;;;;;;16.49;60.66;101732.22;5050022;28;20534;-77
2023/06/16 01:05:38;;;;;;;8.70;4.35;;;;;;;16.47;61.02;101733.19;5048850;28;20025;-77
2023/06/16 01:08:21;;;;;;;6.60;3.88;;;;;;;16.47;60.46;101728.78;5047664;28;20028;-77
2023/06/16 01:10:58;;;;;;;5.30;3.67;;;;;;;16.42;61.20;101728.09;5049804;28;20028;-77
2023/06/16 01:13:31;;;;;;;6.90;3.65;;;;;;;16.43;62.24;101723.69;5048715;28;20029;-77
2023/06/16 01:16:01;;;;;;;5.72;3.80;;;;;;;16.43;59.61;101723.69;5048135;28;20035;-77
2023/06/16 01:18:27;;;;;;;7.80;3.80;;;;;;;16.39;58.24;101730.84;5048022;28;20098;-77
2023/06/16 01:20:57;;;;;;;5.32;3.83;;;;;;;16.35;60.63;101722.19;5050124;28;20029;-77
2023/06/16 01:23:33;;;;;;;7.35;3.78;;;;;;;16.34;61.48;101719.63;5047523;28;20545;-77
2023/06/16 01:26:01;;;;;;;7.00;4.00;;;;;;;16.31;58.80;101715.34;5046181;28;20032;-77
2023/06/16 01:28:30;;;;;;;5.75;3.90;;;;;;;16.28;57.82;101723.34;5044381;28;20766;-77
2023/06/16 01:30:58;;;;;;;5.68;4.00;;;;;;;16.24;58.15;101719.94;5029211;28;20035;-77
2023/06/16 01:33:25;;;;;;;5.57;3.90;;;;;;;16.22;59.71;101721.81;5029281;28;20364;-77
2023/06/16 01:35:53;;;;;;;6.75;3.78;;;;;;;16.18;61.46;101730.69;5047813;28;20029;-77
2023/06/16 01:38:21;;;;;;;8.65;4.05;;;;;;;16.17;60.58;101730.72;5048495;28;20033;-77
2023/06/16 01:40:49;;;;;;;10.38;4.60;;;;;;;16.12;59.38;101730.06;5044114;28;20035;-77
2023/06/16 01:43:15;;;;;;;7.97;4.05;;;;;;;16.06;60.41;101734.59;5050788;28;20017;-77
2023/06/16 01:45:41;;;;;;;7.80;4.13;;;;;;;15.98;58.71;101739.22;5048674;28;20031;-77
2023/06/16 01:48:07;;;;;;;6.00;4.10;;;;;;;15.92;59.99;101729.81;5049042;28;20118;-77
2023/06/16 01:50:33;;;;;;;8.20;3.95;;;;;;;15.92;63.56;101732.44;5046008;28;20078;-77
2023/06/16 01:52:58;;;;;;;5.68;4.13;;;;;;;15.91;63.27;101728.09;5048477;28;20024;-77
2023/06/16 01:55:24;;;;;;;7.72;4.05;;;;;;;15.88;60.03;101722.97;5045869;28;20048;-77
2023/06/16 01:57:49;;;;;;;4.72;3.63;;;;;;;15.87;59.18;101721.25;5044919;28;20549;-77
2023/06/16 02:00:26;;;;;;;8.35;3.92;;;;;;;15.84;59.21;101723.06;5043408;28;20025;-77
2023/06/16 02:03:11;;;;;;;5.85;4.13;;;;;;;15.79;61.19;101718.00;5044875;28;20100;-77
2023/06/16 02:05:42;;;;;;;6.88;3.88;;;;;;;15.77;60.50;101714.56;5047291;28;20062;-77
2023/06/16 02:08:08;;;;;;;6.43;4.07;;;;;;;15.76;59.03;101715.47;5030980;28;20360;-77
2023/06/16 02:10:34;;;;;;;7.22;4.47;;;;;;;15.73;59.87;101719.06;5047655;28;20025;-77
2023/06/16 02:13:00;;;;;;;7.60;4.65;;;;;;;15.70;60.86;101713.91;5048928;28;20027;-77
2023/06/16 02:15:27;;;;;;;6.35;4.35;;;;;;;15.67;58.85;101719.25;5047210;28;20167;-77
2023/06/16 02:17:52;;;;;;;8.63;4.40;;;;;;;15.65;59.33;101728.09;5049738;28;20033;-77
2023/06/16 02:20:18;;;;;;;6.95;4.18;;;;;;;15.62;63.89;101722.03;5047480;28;20040;-77
2023/06/16 02:22:43;;;;;;;6.68;4.45;;;;;;;15.61;60.84;101716.84;5048898;28;20031;-77
2023/06/16 02:25:09;;;;;;;6.15;4.07;;;;;;;15.58;63.33;101715.16;5048073;28;20047;-77
2023/06/16 02:27:34;;;;;;;6.30;4.18;;;;;;;15.58;63.16;101717.78;5046628;28;20032;-77
2023/06/16 02:30:00;;;;;;;6.80;4.20;;;;;;;15.53;62.77;101711.84;5047856;28;20059;-77
2023/06/16 02:32:26;;;;;;;7.10;4.35;;;;;;;15.51;62.76;101718.03;5051254;28;20045;-77
2023/06/16 02:34:52;;;;;;;8.77;4.50;;;;;;;15.43;62.42;101716.53;5049738;28;20025;-77
2023/06/16 02:37:19;;;;;;;5.53;4.03;;;;;;;15.40;63.33;101716.63;5047724;28;20041;-77
2023/06/16 02:39:44;;;;;;;7.22;4.10;;;;;;;15.38;61.25;101717.56;5047386;28;20021;-76
2023/06/16 02:42:10;;;;;;;6.25;4.10;;;;;;;15.35;61.10;101717.69;5046459;28;20091;-77
2023/06/16 02:44:36;;;;;;;6.30;4.07;;;;;;;15.31;60.95;101712.53;5049237;28;20025;-77
2023/06/16 02:47:01;;;;;;;6.45;4.25;;;;;;;15.31;59.31;101712.53;5048469;28;20047;-77
2023/06/16 02:49:26;;;;;;;7.82;4.30;;;;;;;15.31;58.79;101720.41;5047927;28;20383;-77
2023/06/16 02:51:52;;;;;;;6.45;4.43;;;;;;;15.30;58.56;101716.06;5048744;28;20025;-77
2023/06/16 02:54:17;;;;;;;7.13;4.28;;;;;;;15.27;58.40;101716.16;5048448;28;20024;-77
2023/06/16 02:56:42;;;;;;;7.13;4.18;;;;;;;15.27;58.92;101715.31;5048416;28;20031;-77
2023/06/16 02:59:08;;;;;;;7.45;4.57;;;;;;;15.24;59.26;101713.63;5051265;28;20028;-77
2023/06/16 03:01:33;;;;;;;6.85;4.50;;;;;;;15.20;59.26;101714.63;5048543;28;20028;-77
2023/06/16 03:03:59;;;;;;;9.77;4.30;;;;;;;15.16;59.57;101718.25;5052638;28;20032;-77
2023/06/16 03:06:29;;;;;;;8.45;4.25;;;;;;;15.12;62.73;101719.25;5035107;28;20027;-77
2023/06/16 03:08:56;;;;;;;6.65;4.28;;;;;;;15.08;62.87;101715.00;5052357;28;20094;-77
2023/06/16 03:11:21;;;;;;;6.68;4.30;;;;;;;15.06;63.11;101712.44;5051767;28;20024;-77
2023/06/16 03:13:46;;;;;;;7.13;4.45;;;;;;;15.05;63.18;101720.34;5052788;28;20104;-77
2023/06/16 03:16:12;;;;;;;6.20;3.92;;;;;;;15.03;64.11;101720.41;5051783;28;20036;-77
2023/06/16 03:18:37;;;;;;;8.50;4.18;;;;;;;15.04;64.12;101719.50;5051940;28;20049;-77
2023/06/16 03:21:02;;;;;;;7.53;4.28;;;;;;;14.99;61.19;101722.25;5050235;28;20029;-77
2023/06/16 03:23:28;;;;;;;7.30;3.85;;;;;;;14.97;63.51;101717.94;5051860;28;20064;-77
2023/06/16 03:25:53;;;;;;;6.35;4.25;;;;;;;14.95;64.65;101722.38;5049208;28;20040;-77
2023/06/16 03:28:19;;;;;;;7.40;4.05;;;;;;;14.94;60.76;101723.31;5051809;28;20029;-77
2023/06/16 03:30:45;;;;;;;5.60;4.50;;;;;;;14.89;62.19;101720.81;5050427;28;20029;-77
2023/06/16 03:33:10;;;;;;;7.50;4.28;;;;;;;14.85;63.00;101724.44;5050718;28;20092;-77
2023/06/16 03:35:35;;;;;;;5.78;4.18;;;;;;;14.85;62.39;101727.06;5050896;28;20111;-77
2023/06/16 03:38:01;;;;;;;6.60;4.22;;;;;;;14.83;62.43;101721.00;5047456;28;20016;-77
2023/06/16 03:40:26;;;;;;;6.43;4.20;;;;;;;14.82;61.78;101722.75;5049438;28;20029;-77
2023/06/16 03:42:51;;;;;;;6.38;4.15;;;;;;;14.82;61.44;101724.53;5033312;28;20418;-77
2023/06/16 03:45:16;;;;;;;6.40;4.30;;;;;;;14.78;62.53;101722.88;5034951;28;20029;-77
2023/06/16 03:47:42;;;;;;;5.15;3.97;;;;;;;14.76;61.29;101719.44;5046869;28;20417;-77
2023/06/16 03:50:08;;;;;;;6.10;4.00;;;;;;;14.74;61.80;101723.88;5049238;28;20021;-77
2023/06/16 03:52:34;;;;;;;7.72;4.50;;;;;;;14.75;61.47;101723.84;5052537;28;20055;-77
2023/06/16 03:55:00;;;;;;;6.85;4.03;;;;;;;14.77;61.41;101723.78;5050628;28;20027;-77
2023/06/16 03:57:25;;;;;;;7.07;4.18;;;;;;;14.76;61.85;101722.94;5049587;28;20036;-77
2023/06/16 03:59:50;;;;;;;6.22;4.20;;;;;;;14.77;60.68;101721.16;5050559;28;20024;-77
2023/06/16 04:02:16;;;;;;;5.82;4.40;;;;;;;14.77;61.00;101729.03;5048885;28;20538;-77
2023/06/16 04:04:45;;;;;;;6.15;4.60;;;;;;;14.76;60.19;101722.06;5050959;28;20708;-77
2023/06/16 04:07:11;;;;;;;7.28;4.57;;;;;;;14.75;59.89;101725.59;5050077;28;20040;-77
2023/06/16 04:09:37;;;;;;;6.38;4.68;;;;;;;14.76;60.23;101730.81;5047400;28;20032;-77
2023/06/16 04:12:03;;;;;;;8.55;4.82;;;;;;;14.75;60.14;101728.22;5049846;28;20119;-77
2023/06/16 04:14:28;;;;;;;8.50;4.80;;;;;;;14.77;61.04;101732.53;5049251;28;20140;-77
2023/06/16 04:16:53;;;;;;;10.30;5.22;;;;;;;14.76;63.22;101735.16;5047631;28;20379;-77
2023/06/16 04:19:19;;;;;;;8.45;5.25;;;;;;;14.77;61.42;101736.88;5052850;28;20060;-77
2023/06/16 04:21:45;;;;;;;9.85;4.78;;;;;;;14.74;62.17;101734.34;5051204;28;20495;-77
2023/06/16 04:24:11;;;;;;;11.88;5.28;;;;;;;14.66;62.71;101739.78;5049745;28;20375;-77
2023/06/16 04:26:37;;;;;;;9.63;4.88;;;;;;;14.64;62.62;101741.56;5048299;28;20029;-77
2023/06/16 04:29:03;;;;;;;7.32;4.80;;;;;;;14.64;63.32;101737.22;5050854;28;20032;-77
2023/06/16 04:31:31;;;;;;;8.30;5.07;;;;;;;14.69;63.46;101751.03;5047724;28;20467;-77
2023/06/16 04:33:57;;;;;;;8.57;4.70;;;;;;;14.72;63.85;101750.97;5033817;28;20049;-77
2023/06/16 04:36:25;;;;;;;10.57;4.85;;;;;;;14.76;64.10;101743.03;5046214;28;20033;-77
2023/06/16 04:38:53;;;;;;;7.57;4.78;;;;;;;14.80;63.63;101747.28;5045277;28;20055;-77
2023/06/16 04:41:18;;;;;;;7.13;5.05;;;;;;;14.82;63.68;101740.25;5049766;28;20108;-77
2023/06/16 04:43:44;;;;;;;11.18;4.82;;;;;;;14.87;63.92;101748.81;5048232;28;20025;-77
2023/06/16 04:46:09;;;;;;;7.00;5.40;;;;;;;14.90;63.64;101756.56;5028908;28;20746;-77
2023/06/16 04:48:35;;;;;;;18.38;5.68;;;;;;;14.95;62.64;101751.19;5050505;28;20027;-77
2023/06/16 04:51:00;;;;;;;12.00;5.05;;;;;;;15.00;62.68;101750.19;5049456;28;20123;-77
2023/06/16 04:53:27;;;;;;;10.23;5.50;;;;;;;15.05;61.61;101751.78;5048773;28;20387;-77
2023/06/16 04:55:52;;;;;;;7.20;4.55;;;;;;;15.11;62.83;101746.38;5028251;28;20029;-77
2023/06/16 04:58:17;;;;;;;10.40;4.65;;;;;;;15.15;62.85;101743.59;5046121;28;20437;-77
2023/06/16 05:00:43;;;;;;;9.50;5.22;;;;;;;15.20;63.74;101747.84;5042958;28;20557;-77
2023/06/16 05:03:08;;;;;;;7.65;4.85;;;;;;;15.23;63.54;101745.97;5045241;28;20037;-77
2023/06/16 05:05:33;;;;;;;8.07;5.05;;;;;;;15.28;62.11;101749.34;5046371;28;20055;-77
2023/06/16 05:07:58;;;;;;;8.27;4.95;;;;;;;15.37;62.73;101752.59;5048402;28;20060;-77
2023/06/16 05:10:24;;;;;;;22.70;5.80;;;;;;;15.43;63.20;101742.75;5051670;28;20375;-77
2023/06/16 05:12:49;;;;;;;14.20;5.20;;;;;;;15.52;64.28;101746.84;5044063;28;20108;-77
2023/06/16 05:15:14;;;;;;;10.55;5.40;;;;;;;15.58;62.96;101746.63;5048012;28;20464;-77
2023/06/16 05:17:40;;;;;;;10.02;5.75;;;;;;;15.65;63.19;101751.69;5050071;28;20027;-77
2023/06/16 05:20:06;;;;;;;12.52;5.55;;;;;;;15.72;63.97;101753.19;5052346;28;20028;-77
2023/06/16 05:22:31;;;;;;;8.35;5.95;;;;;;;15.79;62.76;101754.72;5047994;28;20181;-77
2023/06/16 05:24:57;;;;;;;7.63;5.53;;;;;;;15.86;63.07;101756.28;5047708;28;20164;-77
2023/06/16 05:27:24;;;;;;;8.30;5.63;;;;;;;15.95;62.45;101759.47;5050164;28;20386;-77
2023/06/16 05:29:53;;;;;;;9.95;5.68;;;;;;;16.03;61.92;101765.34;5052071;28;20468;-77
2023/06/16 05:32:21;;;;;;;7.50;5.63;;;;;;;16.07;61.74;101762.56;5049116;28;20090;-77
2023/06/16 05:34:47;;;;;;;10.30;5.63;;;;;;;16.13;62.43;101763.28;5034206;28;20028;-77
2023/06/16 05:37:16;;;;;;;8.43;5.80;;;;;;;16.20;61.69;101765.63;5047076;28;20029;-77
2023/06/16 05:39:43;;;;;;;9.85;5.72;;;;;;;16.26;61.48;101766.31;5052267;28;20367;-77
2023/06/16 05:42:14;;;;;;;10.05;5.95;;;;;;;16.34;61.78;101761.66;5046636;28;20395;-77
2023/06/16 05:44:40;;;;;;;9.02;6.03;;;;;;;16.40;62.51;101764.03;5051985;28;20047;-77
2023/06/16 05:47:06;;;;;;;9.98;5.93;;;;;;;16.47;62.23;101768.19;5045038;28;20399;-77
2023/06/16 05:49:31;;;;;;;7.72;5.55;;;;;;;16.52;62.75;101770.63;5048457;28;20028;-77
2023/06/16 05:51:57;;;;;;;11.00;6.22;;;;;;;16.58;61.56;101780.94;5050772;28;20021;-77
2023/06/16 05:54:22;;;;;;;8.70;5.88;;;;;;;16.64;61.59;101774.59;5033951;28;20116;-77
2023/06/16 05:56:48;;;;;;;7.22;6.00;;;;;;;16.70;61.28;101774.38;5047205;28;20054;-77
2023/06/16 05:59:13;;;;;;;6.72;5.38;;;;;;;16.75;62.33;101772.41;5048558;28;20021;-77
2023/06/16 06:01:38;;;;;;;10.02;6.45;;;;;;;16.80;62.02;101769.66;5045295;28;20467;-77
2023/06/16 06:04:03;;;;;;;9.25;5.82;;;;;;;16.88;64.46;101772.00;5051570;28;20025;-77
2023/06/16 06:06:29;;;;;;;9.68;5.80;;;;;;;16.95;62.49;101773.47;5048379;28;20025;-77
2023/06/16 06:08:54;;;;;;;9.32;5.57;;;;;;;17.01;61.23;101772.38;5051102;28;20032;-77
2023/06/16 06:11:19;;;;;;;8.80;5.88;;;;;;;17.09;61.71;101784.31;5048401;28;20060;-77
2023/06/16 06:13:45;;;;;;;8.02;5.35;;;;;;;17.16;59.47;101786.72;5049935;28;20021;-77
2023/06/16 06:16:11;;;;;;;7.22;5.47;;;;;;;17.22;61.65;101781.25;5049124;28;20106;-77
2023/06/16 06:18:36;;;;;;;8.73;5.28;;;;;;;17.30;60.05;101787.06;5049912;28;20049;-77
2023/06/16 06:21:02;;;;;;;7.57;5.45;;;;;;;17.37;61.92;101788.53;5049846;28;20114;-77
2023/06/16 06:23:27;;;;;;;8.68;5.28;;;;;;;17.44;58.55;101797.03;5048882;28;20017;-77
2023/06/16 06:25:52;;;;;;;7.15;5.63;;;;;;;17.54;60.44;101795.75;5049524;28;20032;-78
2023/06/16 06:28:18;;;;;;;7.57;5.53;;;;;;;17.60;59.92;101797.28;5054347;28;20076;-77
2023/06/16 06:30:43;;;;;;;7.45;5.88;;;;;;;17.67;60.20;101797.91;5053489;28;20029;-77
2023/06/16 06:33:08;;;;;;;7.85;5.95;;;;;;;17.75;59.30;101796.69;5054307;28;20029;-77
2023/06/16 06:35:34;;;;;;;8.77;6.03;;;;;;;17.86;58.82;101790.09;5036313;28;20029;-77
2023/06/16 06:37:59;;;;;;;7.93;5.72;;;;;;;17.93;60.42;101799.47;5048937;28;20025;-78
2023/06/16 06:40:24;;;;;;;10.77;6.30;;;;;;;18.00;58.67;101800.94;5050800;28;20025;-77
2023/06/16 06:42:50;;;;;;;8.73;5.90;;;;;;;18.07;55.95;101791.00;5052888;28;20064;-77
2023/06/16 06:45:15;;;;;;;7.03;5.43;;;;;;;18.18;57.29;101804.59;5051729;28;20059;-77
2023/06/16 06:47:40;;;;;;;9.25;5.68;;;;;;;18.28;55.46;101804.19;5053386;28;20040;-77
2023/06/16 06:50:06;;;;;;;6.68;5.53;;;;;;;18.37;57.91;101803.78;5053008;28;20028;-77
2023/06/16 06:52:31;;;;;;;7.80;5.03;;;;;;;18.45;55.48;101806.94;5053898;28;20036;-77
2023/06/16 06:54:57;;;;;;;7.45;4.55;;;;;;;18.56;54.09;101790.66;5054297;28;20025;-78
2023/06/16 06:57:25;;;;;;;8.02;4.50;;;;;;;18.66;53.84;101799.88;5052924;28;20410;-77
2023/06/16 06:59:50;;;;;;;7.97;4.55;;;;;;;18.76;54.27;101796.84;5051800;28;20017;-77
2023/06/16 07:02:16;;;;;;;7.15;4.28;;;;;;;18.89;52.27;101798.00;5052385;28;20074;-77
2023/06/16 07:04:42;;;;;;;7.00;4.43;;;;;;;18.99;51.93;101794.94;5052768;28;20025;-77
2023/06/16 07:07:08;;;;;;;4.75;3.67;;;;;;;19.04;52.60;101799.09;5048290;28;20437;-78
2023/06/16 07:09:34;;;;;;;7.18;3.97;;;;;;;19.09;52.84;101801.53;5052560;28;20026;-77
2023/06/16 07:12:00;;;;;;;4.90;3.55;;;;;;;19.16;48.52;101797.66;5053865;28;20075;-77
2023/06/16 07:14:26;;;;;;;7.07;4.03;;;;;;;19.24;47.20;101792.88;5049769;28;20048;-77
2023/06/16 07:16:51;;;;;;;5.10;3.47;;;;;;;19.33;50.01;101804.78;5054641;28;20040;-77
2023/06/16 07:19:17;;;;;;;6.75;3.90;;;;;;;19.39;47.25;101801.00;5051443;28;20028;-78
2023/06/16 07:21:42;;;;;;;6.55;3.42;;;;;;;19.46;45.41;101797.16;5052326;28;20021;-77
2023/06/16 07:24:07;;;;;;;6.57;3.72;;;;;;;19.53;44.89;101803.81;5050069;28;20056;-77
2023/06/16 07:26:33;;;;;;;5.35;3.85;;;;;;;19.59;45.17;101800.03;5054433;28;20032;-77
2023/06/16 07:29:00;;;;;;;6.50;3.60;;;;;;;19.66;44.31;101805.84;5053207;28;20083;-77
2023/06/16 07:31:25;;;;;;;5.60;3.80;;;;;;;19.74;45.21;101809.00;5047589;28;20087;-77
2023/06/16 07:33:51;;;;;;;4.82;3.35;;;;;;;19.79;44.02;101807.00;5033717;28;20032;-77
2023/06/16 07:36:16;;;;;;;4.30;3.33;;;;;;;19.88;43.08;101812.75;5054270;28;20056;-77
2023/06/16 07:38:41;;;;;;;5.43;3.88;;;;;;;19.93;45.05;101813.41;5048942;28;20075;-77
2023/06/16 07:41:07;;;;;;;5.28;3.58;;;;;;;19.98;43.16;101814.03;5051343;28;20104;-77
2023/06/16 07:43:33;;;;;;;7.85;3.38;;;;;;;20.00;44.62;101812.13;5051507;28;20700;-77
2023/06/16 07:45:58;;;;;;;6.05;3.97;;;;;;;19.98;44.79;101814.03;5052621;28;20438;-77
2023/06/16 07:48:23;;;;;;;6.53;4.00;;;;;;;19.99;44.12;101813.06;5051139;28;20111;-77
2023/06/16 07:50:49;;;;;;;6.40;3.40;;;;;;;20.00;46.55;101813.00;5052788;28;20020;-77
2023/06/16 07:53:14;;;;;;;7.63;3.67;;;;;;;20.02;45.39;101811.16;5050032;28;20034;-77
2023/06/16 07:55:40;;;;;;;6.10;3.78;;;;;;;20.06;43.42;101813.66;5053231;28;20028;-77
2023/06/16 07:58:05;;;;;;;7.47;3.80;;;;;;;20.06;43.89;101808.38;5050495;28;20029;-77
2023/06/16 08:00:30;;;;;;;6.82;3.83;;;;;;;20.09;45.26;101809.06;5051741;28;20048;-78
2023/06/16 08:02:55;;;;;;;5.35;3.40;;;;;;;20.13;45.04;101810.63;5049747;28;20041;-77
2023/06/16 08:05:21;;;;;;;5.45;3.30;;;;;;;20.18;43.81;101805.09;5052817;28;20032;-77
2023/06/16 08:07:46;;;;;;;4.80;3.20;;;;;;;20.25;41.80;101802.97;5050896;28;20025;-77
2023/06/16 08:10:12;;;;;;;4.72;3.28;;;;;;;20.33;42.42;101806.06;5051524;28;20021;-77
2023/06/16 08:12:38;;;;;;;5.80;3.00;;;;;;;20.40;42.56;101794.25;5049153;28;20029;-78
2023/06/16 08:15:04;;;;;;;4.60;3.08;;;;;;;20.50;41.63;101796.41;5051978;28;20097;-77
2023/06/16 08:17:29;;;;;;;6.80;3.40;;;;;;;20.58;41.12;101795.06;5050334;28;20163;-77
2023/06/16 08:19:54;;;;;;;5.97;3.15;;;;;;;20.65;39.72;101798.25;5051551;28;20033;-77
2023/06/16 08:22:20;;;;;;;4.82;3.17;;;;;;;20.68;40.64;101800.72;5049064;28;20029;-77
2023/06/16 08:24:45;;;;;;;6.13;3.22;;;;;;;20.71;38.98;101805.00;5048505;28;20029;-77
2023/06/16 08:27:11;;;;;;;4.18;3.17;;;;;;;20.73;38.78;101798.69;5050411;28;20025;-77
2023/06/16 08:29:37;;;;;;;3.92;3.15;;;;;;;20.82;41.23;101804.47;5048465;28;20032;-77
2023/06/16 08:32:02;;;;;;;5.18;3.20;;;;;;;20.86;39.47;101803.34;5049935;28;20024;-77
2023/06/16 08:34:28;;;;;;;4.97;3.55;;;;;;;20.87;39.33;101799.75;5051607;28;20028;-77
2023/06/16 08:36:53;;;;;;;4.45;3.22;;;;;;;20.91;38.23;101809.25;5048548;28;20382;-77
2023/06/16 08:39:19;;;;;;;4.90;3.08;;;;;;;21.00;37.98;101800.84;5046994;28;20064;-77
2023/06/16 08:41:45;;;;;;;6.03;3.35;;;;;;;21.08;38.41;101797.75;5048045;28;20029;-78
2023/06/16 08:44:14;;;;;;;6.30;3.33;;;;;;;21.12;39.81;101793.16;5049874;28;20032;-78
2023/06/16 08:46:39;;;;;;;6.07;3.33;;;;;;;21.15;39.80;101785.88;5048915;28;20021;-77
2023/06/16 08:49:05;;;;;;;6.05;3.60;;;;;;;21.21;40.47;101788.19;5051883;28;20517;-78
2023/06/16 08:51:34;;;;;;;5.32;3.40;;;;;;;21.26;39.56;101789.75;5050793;28;20112;-77
2023/06/16 08:54:03;;;;;;;4.97;3.05;;;;;;;21.28;40.26;101796.66;5047462;28;20029;-77
2023/06/16 08:56:31;;;;;;;6.72;3.60;;;;;;;21.32;37.41;101792.03;5050641;28;20083;-77
2023/06/16 08:59:00;;;;;;;4.93;2.83;;;;;;;21.38;36.93;101789.88;5034873;28;20064;-77
2023/06/16 09:01:25;;;;;;;3.90;3.00;;;;;;;21.44;37.12;101785.19;5051063;28;20021;-77
2023/06/16 09:03:53;;;;;;;4.47;2.85;;;;;;;21.47;38.06;101785.84;5052336;28;20110;-77
2023/06/16 09:06:18;;;;;;;5.15;2.72;;;;;;;21.51;37.14;101790.03;5051635;28;20078;-78
2023/06/16 09:08:44;;;;;;;5.78;2.95;;;;;;;21.57;37.74;101794.13;5048714;28;20387;-78
2023/06/16 09:11:09;;;;;;;4.90;3.00;;;;;;;21.62;35.84;101792.13;5049712;28;20035;-78
2023/06/16 09:13:40;;;;;;;5.03;3.15;;;;;;;21.64;35.22;101792.00;5050923;28;20021;-78
2023/06/16 09:16:05;;;;;;;4.88;3.20;;;;;;;21.62;36.08;101791.25;5033328;28;20032;-78
2023/06/16 09:18:41;;;;;;;4.45;3.00;;;;;;;21.64;36.26;101794.66;5051777;28;20025;-78
2023/06/16 09:21:08;;;;;;;3.15;2.60;;;;;;;21.70;35.75;101801.41;5052537;28;20283;-78
2023/06/16 09:23:35;;;;;;;4.68;2.65;;;;;;;21.77;38.01;101800.09;5047610;28;20029;-78
2023/06/16 09:26:08;;;;;;;3.85;2.50;;;;;;;21.77;35.14;101795.69;5024798;28;21240;-78
2023/06/16 09:28:34;;;;;;;3.05;2.42;;;;;;;21.82;34.91;101798.91;5045540;28;20025;-78
2023/06/16 09:31:04;;;;;;;4.70;2.63;;;;;;;21.87;33.00;101785.38;5047710;28;20022;-78
2023/06/16 09:33:30;;;;;;;2.97;2.30;;;;;;;21.91;34.82;101792.22;5049924;28;20032;-78
2023/06/16 09:35:55;;;;;;;4.80;2.90;;;;;;;21.95;36.24;101783.13;5045021;28;20025;-78
2023/06/16 09:38:21;;;;;;;3.83;2.90;;;;;;;21.95;33.90;101782.28;5049123;28;20036;-78
2023/06/16 09:40:46;;;;;;;3.40;2.65;;;;;;;21.95;36.00;101783.13;5048650;28;20060;-78
2023/06/16 09:43:11;;;;;;;5.60;2.60;;;;;;;22.01;34.59;101781.06;5049340;28;20057;-78
2023/06/16 09:45:37;;;;;;;5.20;2.53;;;;;;;22.09;35.04;101778.81;5032110;28;20028;-78
2023/06/16 09:48:04;;;;;;;4.82;2.60;;;;;;;22.16;35.99;101780.16;5047631;28;20021;-78
2023/06/16 09:50:30;;;;;;;3.30;2.60;;;;;;;22.19;33.66;101782.63;5048068;28;20119;-78
2023/06/16 09:52:56;;;;;;;4.07;2.90;;;;;;;22.20;33.55;101776.38;5049871;28;20020;-78
2023/06/16 09:55:26;;;;;;;4.03;2.72;;;;;;;22.22;34.19;101778.94;5047399;28;20423;-78
2023/06/16 09:57:51;;;;;;;4.70;3.25;;;;;;;22.23;35.59;101770.88;5043439;28;20032;-78
2023/06/16 10:00:17;;;;;;;5.20;2.95;;;;;;;22.22;33.91;101774.47;5048906;28;20021;-78
2023/06/16 10:02:44;;;;;;;4.30;2.88;;;;;;;22.22;32.94;101773.63;5051131;28;20040;-78
2023/06/16 10:05:13;;;;;;;4.68;2.90;;;;;;;22.22;33.89;101774.47;5048437;28;20033;-78
2023/06/16 10:07:40;;;;;;;4.47;2.90;;;;;;;22.26;34.31;101772.50;5032838;28;20028;-78
2023/06/16 10:10:10;;;;;;;4.95;2.85;;;;;;;22.36;34.53;101778.09;5051374;28;20032;-78
2023/06/16 10:12:36;;;;;;;3.22;2.65;;;;;;;22.43;33.14;101766.19;5051437;28;20025;-78
2023/06/16 10:15:03;;;;;;;4.45;2.78;;;;;;;22.50;33.09;101775.50;5050358;28;20035;-78
2023/06/16 10:17:31;;;;;;;5.00;2.83;;;;;;;22.49;32.96;101760.53;5051724;28;20142;-78
2023/06/16 10:19:57;;;;;;;4.65;2.80;;;;;;;22.50;33.53;101762.22;5050897;28;20353;-78
2023/06/16 10:22:22;;;;;;;4.47;2.53;;;;;;;22.56;32.48;101756.53;5030860;28;20181;-78
2023/06/16 10:24:48;;;;;;;4.10;2.90;;;;;;;22.62;34.12;101765.06;5045234;28;20115;-78
2023/06/16 10:27:14;;;;;;;5.30;3.10;;;;;;;22.65;32.75;101765.72;5045496;28;20040;-78
2023/06/16 10:29:41;;;;;;;3.35;2.50;;;;;;;22.70;33.87;101757.50;5044685;28;20593;-78
2023/06/16 10:32:10;;;;;;;4.40;2.78;;;;;;;22.76;32.64;101759.72;5049047;28;20388;-78
2023/06/16 10:34:46;;;;;;;4.03;2.80;;;;;;;22.77;32.42;101758.78;5030305;28;20029;-78
2023/06/16 10:37:13;;;;;;;6.20;3.30;;;;;;;22.73;32.02;101752.84;5025067;28;20036;-77
2023/06/16 10:39:45;;;;;;;3.95;2.72;;;;;;;22.74;33.83;101748.38;5043108;28;20037;-78
2023/06/16 10:42:15;;;;;;;3.90;2.88;;;;;;;22.74;34.51;101749.22;5040950;28;20025;-78
2023/06/16 10:44:41;;;;;;;4.03;2.70;;;;;;;22.77;33.86;101745.53;5043101;28;20032;-78
2023/06/16 10:47:09;;;;;;;5.13;2.70;;;;;;;22.84;33.04;101740.69;5042464;28;20043;-79
2023/06/16 10:49:46;;;;;;;4.72;2.60;;;;;;;22.91;33.76;101738.47;5041571;28;20031;-78
2023/06/16 10:52:30;;;;;;;3.45;2.63;;;;;;;22.97;32.87;101738.09;5040974;28;20391;-78
2023/06/16 10:54:57;;;;;;;4.22;2.70;;;;;;;23.00;33.18;101728.13;5043666;28;20459;-78
2023/06/16 10:57:26;;;;;;;3.40;2.60;;;;;;;23.06;32.98;101734.84;5040231;28;20427;-78
2023/06/16 11:00:14;;;;;;;3.85;2.60;;;;;;;23.09;31.18;101733.81;5041388;28;20037;-78
2023/06/16 11:02:51;;;;;;;4.32;3.05;;;;;;;23.12;32.17;101736.28;5043101;28;20048;-78
2023/06/16 11:05:20;;;;;;;5.50;2.80;;;;;;;23.10;31.96;101732.84;5041123;28;20083;-78
2023/06/16 11:08:12;;;;;;;4.18;2.65;;;;;;;23.11;32.27;101727.44;5042069;28;20159;-78
2023/06/16 11:10:54;;;;;;;5.30;2.90;;;;;;;23.14;31.97;101729.06;5041223;28;20071;-78
2023/06/16 11:13:25;;;;;;;4.47;2.60;;;;;;;23.19;32.01;101722.50;5042089;28;20051;-78
2023/06/16 11:15:56;;;;;;;3.80;2.83;;;;;;;23.26;31.52;101714.13;5049756;28;20112;-78
2023/06/16 11:18:25;;;;;;;4.15;2.65;;;;;;;23.31;30.50;101720.84;5048639;28;20029;-78
2023/06/16 11:21:02;;;;;;;3.88;2.83;;;;;;;23.34;31.06;101719.81;5043080;28;20037;-78
2023/06/16 11:23:27;;;;;;;7.03;2.90;;;;;;;23.36;32.54;101717.91;5045748;28;20387;-78